sensor_id;sensor_type;location;lat;lon;timestamp;P1;durP1;ratioP1;P2;durP2;ratioP2
59486;SDS011;45298;54.918;73.504;2023-12-22T00:01:04;1.52;;;1.05;;
59486;SDS011;45298;54.918;73.504;2023-12-22T00:03:34;2.88;;;1.00;;
59486;SDS011;45298;54.918;73.504;2023-12-22T00:06:02;1.30;;;0.93;;
59486;SDS011;45298;54.918;73.504;2023-12-22T00:08:32;3.88;;;1.63;;
59486;SDS011;45298;54.918;73.504;2023-12-22T00:11:03;1.13;;;0.80;;
59486;SDS011;45298;54.918;73.504;2023-12-22T00:13:32;1.85;;;1.10;;
59486;SDS011;45298;54.918;73.504;2023-12-22T00:16:02;2.72;;;1.05;;
59486;SDS011;45298;54.918;73.504;2023-12-22T00:18:32;3.17;;;1.40;;
59486;SDS011;45298;54.918;73.504;2023-12-22T00:21:01;1.52;;;1.10;;
59486;SDS011;45298;54.918;73.504;2023-12-22T00:23:30;7.15;;;2.20;;
59486;SDS011;45298;54.918;73.504;2023-12-22T00:26:05;1.90;;;1.45;;
59486;SDS011;45298;54.918;73.504;2023-12-22T00:28:34;2.67;;;1.55;;
59486;SDS011;45298;54.918;73.504;2023-12-22T00:31:03;4.00;;;2.13;;
59486;SDS011;45298;54.918;73.504;2023-12-22T00:33:32;6.22;;;1.40;;
59486;SDS011;45298;54.918;73.504;2023-12-22T00:36:01;3.90;;;2.35;;
59486;SDS011;45298;54.918;73.504;2023-12-22T00:38:30;8.48;;;1.98;;
59486;SDS011;45298;54.918;73.504;2023-12-22T00:41:00;9.27;;;1.90;;
59486;SDS011;45298;54.918;73.504;2023-12-22T00:43:29;9.13;;;2.33;;
59486;SDS011;45298;54.918;73.504;2023-12-22T00:45:58;6.05;;;1.90;;
59486;SDS011;45298;54.918;73.504;2023-12-22T00:48:27;2.28;;;0.77;;
59486;SDS011;45298;54.918;73.504;2023-12-22T00:50:56;2.20;;;1.45;;
59486;SDS011;45298;54.918;73.504;2023-12-22T00:53:25;5.75;;;2.30;;
59486;SDS011;45298;54.918;73.504;2023-12-22T00:55:54;5.85;;;1.98;;
59486;SDS011;45298;54.918;73.504;2023-12-22T00:58:23;3.13;;;1.65;;
59486;SDS011;45298;54.918;73.504;2023-12-22T01:00:52;2.03;;;1.35;;
59486;SDS011;45298;54.918;73.504;2023-12-22T01:03:21;4.00;;;1.83;;
59486;SDS011;45298;54.918;73.504;2023-12-22T01:05:52;8.52;;;1.65;;
59486;SDS011;45298;54.918;73.504;2023-12-22T01:08:22;1.75;;;1.13;;
59486;SDS011;45298;54.918;73.504;2023-12-22T01:10:51;3.95;;;1.95;;
59486;SDS011;45298;54.918;73.504;2023-12-22T01:13:20;5.30;;;2.30;;
59486;SDS011;45298;54.918;73.504;2023-12-22T01:15:48;4.57;;;2.00;;
59486;SDS011;45298;54.918;73.504;2023-12-22T01:18:17;6.57;;;2.25;;
59486;SDS011;45298;54.918;73.504;2023-12-22T01:20:46;6.35;;;2.20;;
59486;SDS011;45298;54.918;73.504;2023-12-22T01:23:17;5.28;;;2.15;;
59486;SDS011;45298;54.918;73.504;2023-12-22T01:25:46;6.30;;;1.65;;
59486;SDS011;45298;54.918;73.504;2023-12-22T01:28:15;2.90;;;1.75;;
59486;SDS011;45298;54.918;73.504;2023-12-22T01:30:44;2.22;;;1.50;;
59486;SDS011;45298;54.918;73.504;2023-12-22T01:33:13;4.05;;;1.88;;
59486;SDS011;45298;54.918;73.504;2023-12-22T01:35:42;2.45;;;1.67;;
59486;SDS011;45298;54.918;73.504;2023-12-22T01:38:11;1.90;;;1.23;;
59486;SDS011;45298;54.918;73.504;2023-12-22T01:40:40;4.32;;;1.90;;
59486;SDS011;45298;54.918;73.504;2023-12-22T01:43:09;4.32;;;2.15;;
59486;SDS011;45298;54.918;73.504;2023-12-22T01:45:38;4.13;;;2.17;;
59486;SDS011;45298;54.918;73.504;2023-12-22T01:48:11;5.18;;;3.00;;
59486;SDS011;45298;54.918;73.504;2023-12-22T01:50:40;5.32;;;2.22;;
59486;SDS011;45298;54.918;73.504;2023-12-22T01:53:10;4.03;;;1.88;;
59486;SDS011;45298;54.918;73.504;2023-12-22T01:55:39;5.80;;;2.03;;
59486;SDS011;45298;54.918;73.504;2023-12-22T01:58:08;3.67;;;2.28;;
59486;SDS011;45298;54.918;73.504;2023-12-22T02:00:38;4.85;;;2.38;;
59486;SDS011;45298;54.918;73.504;2023-12-22T02:03:08;5.80;;;2.17;;
59486;SDS011;45298;54.918;73.504;2023-12-22T02:05:37;6.72;;;2.50;;
59486;SDS011;45298;54.918;73.504;2023-12-22T02:08:06;3.58;;;2.00;;
59486;SDS011;45298;54.918;73.504;2023-12-22T02:10:35;2.45;;;1.73;;
59486;SDS011;45298;54.918;73.504;2023-12-22T02:13:05;8.90;;;2.67;;
59486;SDS011;45298;54.918;73.504;2023-12-22T02:15:34;6.90;;;2.30;;
59486;SDS011;45298;54.918;73.504;2023-12-22T02:20:35;4.32;;;2.20;;
59486;SDS011;45298;54.918;73.504;2023-12-22T02:23:06;3.13;;;1.90;;
59486;SDS011;45298;54.918;73.504;2023-12-22T02:25:36;4.63;;;1.98;;
59486;SDS011;45298;54.918;73.504;2023-12-22T02:28:07;5.63;;;2.65;;
59486;SDS011;45298;54.918;73.504;2023-12-22T02:30:42;4.45;;;2.13;;
59486;SDS011;45298;54.918;73.504;2023-12-22T02:33:28;3.90;;;1.85;;
59486;SDS011;45298;54.918;73.504;2023-12-22T02:36:01;3.72;;;1.10;;
59486;SDS011;45298;54.918;73.504;2023-12-22T02:38:32;2.33;;;1.30;;
59486;SDS011;45298;54.918;73.504;2023-12-22T02:41:03;2.33;;;1.15;;
59486;SDS011;45298;54.918;73.504;2023-12-22T02:43:33;3.08;;;1.58;;
59486;SDS011;45298;54.918;73.504;2023-12-22T02:46:03;4.57;;;1.38;;
59486;SDS011;45298;54.918;73.504;2023-12-22T02:48:33;5.95;;;1.45;;
59486;SDS011;45298;54.918;73.504;2023-12-22T02:51:04;2.53;;;1.45;;
59486;SDS011;45298;54.918;73.504;2023-12-22T02:53:33;8.18;;;2.53;;
59486;SDS011;45298;54.918;73.504;2023-12-22T02:56:02;3.67;;;1.65;;
59486;SDS011;45298;54.918;73.504;2023-12-22T02:58:31;2.67;;;1.50;;
59486;SDS011;45298;54.918;73.504;2023-12-22T03:01:00;5.90;;;2.10;;
59486;SDS011;45298;54.918;73.504;2023-12-22T03:03:30;3.70;;;2.20;;
59486;SDS011;45298;54.918;73.504;2023-12-22T03:05:59;4.70;;;1.95;;
59486;SDS011;45298;54.918;73.504;2023-12-22T03:08:28;3.95;;;2.00;;
59486;SDS011;45298;54.918;73.504;2023-12-22T03:10:57;5.20;;;2.30;;
59486;SDS011;45298;54.918;73.504;2023-12-22T03:13:26;5.28;;;1.95;;
59486;SDS011;45298;54.918;73.504;2023-12-22T03:15:55;3.03;;;1.92;;
59486;SDS011;45298;54.918;73.504;2023-12-22T03:18:24;8.10;;;3.45;;
59486;SDS011;45298;54.918;73.504;2023-12-22T03:20:56;3.33;;;1.95;;
59486;SDS011;45298;54.918;73.504;2023-12-22T03:23:25;3.65;;;1.65;;
59486;SDS011;45298;54.918;73.504;2023-12-22T03:25:54;1.42;;;1.33;;
59486;SDS011;45298;54.918;73.504;2023-12-22T03:28:26;3.75;;;1.83;;
59486;SDS011;45298;54.918;73.504;2023-12-22T03:30:55;2.10;;;1.50;;
59486;SDS011;45298;54.918;73.504;2023-12-22T03:33:24;4.43;;;1.65;;
59486;SDS011;45298;54.918;73.504;2023-12-22T03:35:52;6.07;;;1.92;;
59486;SDS011;45298;54.918;73.504;2023-12-22T03:38:21;5.22;;;2.38;;
59486;SDS011;45298;54.918;73.504;2023-12-22T03:40:51;5.40;;;1.98;;
59486;SDS011;45298;54.918;73.504;2023-12-22T03:43:20;4.28;;;2.17;;
59486;SDS011;45298;54.918;73.504;2023-12-22T03:45:49;3.72;;;2.42;;
59486;SDS011;45298;54.918;73.504;2023-12-22T03:48:18;7.97;;;1.50;;
59486;SDS011;45298;54.918;73.504;2023-12-22T03:50:48;6.63;;;2.35;;
59486;SDS011;45298;54.918;73.504;2023-12-22T03:53:17;5.05;;;1.95;;
59486;SDS011;45298;54.918;73.504;2023-12-22T03:55:46;10.50;;;2.47;;
59486;SDS011;45298;54.918;73.504;2023-12-22T03:58:15;5.70;;;2.60;;
59486;SDS011;45298;54.918;73.504;2023-12-22T04:00:44;4.80;;;2.63;;
59486;SDS011;45298;54.918;73.504;2023-12-22T04:03:13;6.40;;;2.25;;
59486;SDS011;45298;54.918;73.504;2023-12-22T04:05:42;3.40;;;1.75;;
59486;SDS011;45298;54.918;73.504;2023-12-22T04:08:11;4.47;;;2.17;;
59486;SDS011;45298;54.918;73.504;2023-12-22T04:10:40;6.70;;;2.45;;
59486;SDS011;45298;54.918;73.504;2023-12-22T04:13:11;4.38;;;2.60;;
59486;SDS011;45298;54.918;73.504;2023-12-22T04:15:40;6.55;;;2.92;;
59486;SDS011;45298;54.918;73.504;2023-12-22T04:18:09;8.18;;;2.90;;
59486;SDS011;45298;54.918;73.504;2023-12-22T04:20:38;3.45;;;1.67;;
59486;SDS011;45298;54.918;73.504;2023-12-22T04:23:08;8.35;;;2.08;;
59486;SDS011;45298;54.918;73.504;2023-12-22T04:25:37;8.98;;;2.65;;
59486;SDS011;45298;54.918;73.504;2023-12-22T04:28:06;6.20;;;2.72;;
59486;SDS011;45298;54.918;73.504;2023-12-22T04:30:35;4.32;;;2.08;;
59486;SDS011;45298;54.918;73.504;2023-12-22T04:33:04;8.07;;;2.63;;
59486;SDS011;45298;54.918;73.504;2023-12-22T04:35:33;4.22;;;2.85;;
59486;SDS011;45298;54.918;73.504;2023-12-22T04:38:02;6.22;;;3.05;;
59486;SDS011;45298;54.918;73.504;2023-12-22T04:40:32;4.68;;;2.17;;
59486;SDS011;45298;54.918;73.504;2023-12-22T04:43:01;5.90;;;3.25;;
59486;SDS011;45298;54.918;73.504;2023-12-22T04:45:29;11.43;;;3.08;;
59486;SDS011;45298;54.918;73.504;2023-12-22T04:48:01;3.22;;;1.95;;
59486;SDS011;45298;54.918;73.504;2023-12-22T04:50:30;3.95;;;1.83;;
59486;SDS011;45298;54.918;73.504;2023-12-22T04:52:59;4.28;;;1.95;;
59486;SDS011;45298;54.918;73.504;2023-12-22T04:55:30;1.98;;;1.25;;
59486;SDS011;45298;54.918;73.504;2023-12-22T04:57:59;3.15;;;1.70;;
59486;SDS011;45298;54.918;73.504;2023-12-22T05:00:28;4.25;;;1.85;;
59486;SDS011;45298;54.918;73.504;2023-12-22T05:02:57;5.40;;;2.65;;
59486;SDS011;45298;54.918;73.504;2023-12-22T05:05:26;3.97;;;2.15;;
59486;SDS011;45298;54.918;73.504;2023-12-22T05:07:55;7.13;;;2.13;;
59486;SDS011;45298;54.918;73.504;2023-12-22T05:10:25;1.90;;;1.48;;
59486;SDS011;45298;54.918;73.504;2023-12-22T05:12:54;4.30;;;2.42;;
59486;SDS011;45298;54.918;73.504;2023-12-22T05:15:23;3.90;;;2.10;;
59486;SDS011;45298;54.918;73.504;2023-12-22T05:17:52;4.35;;;2.35;;
59486;SDS011;45298;54.918;73.504;2023-12-22T05:20:21;5.85;;;2.25;;
59486;SDS011;45298;54.918;73.504;2023-12-22T05:22:51;5.72;;;2.83;;
59486;SDS011;45298;54.918;73.504;2023-12-22T05:25:21;5.30;;;2.38;;
59486;SDS011;45298;54.918;73.504;2023-12-22T05:27:50;4.63;;;2.03;;
59486;SDS011;45298;54.918;73.504;2023-12-22T05:30:20;4.43;;;2.50;;
59486;SDS011;45298;54.918;73.504;2023-12-22T05:32:49;5.43;;;1.92;;
59486;SDS011;45298;54.918;73.504;2023-12-22T05:35:18;3.03;;;1.38;;
59486;SDS011;45298;54.918;73.504;2023-12-22T05:37:47;2.08;;;1.33;;
59486;SDS011;45298;54.918;73.504;2023-12-22T05:40:19;5.18;;;1.90;;
59486;SDS011;45298;54.918;73.504;2023-12-22T05:42:48;2.58;;;1.65;;
59486;SDS011;45298;54.918;73.504;2023-12-22T05:45:17;3.35;;;1.65;;
59486;SDS011;45298;54.918;73.504;2023-12-22T05:47:46;3.35;;;1.60;;
59486;SDS011;45298;54.918;73.504;2023-12-22T05:50:16;5.15;;;1.77;;
59486;SDS011;45298;54.918;73.504;2023-12-22T05:52:48;6.93;;;2.20;;
59486;SDS011;45298;54.918;73.504;2023-12-22T05:55:17;4.60;;;1.17;;
59486;SDS011;45298;54.918;73.504;2023-12-22T05:57:46;4.68;;;1.60;;
59486;SDS011;45298;54.918;73.504;2023-12-22T06:00:15;2.35;;;1.55;;
59486;SDS011;45298;54.918;73.504;2023-12-22T06:02:45;1.90;;;1.15;;
59486;SDS011;45298;54.918;73.504;2023-12-22T06:05:14;2.10;;;1.15;;
59486;SDS011;45298;54.918;73.504;2023-12-22T06:07:43;3.47;;;0.80;;
59486;SDS011;45298;54.918;73.504;2023-12-22T06:10:12;4.97;;;1.42;;
59486;SDS011;45298;54.918;73.504;2023-12-22T06:12:41;2.70;;;1.38;;
59486;SDS011;45298;54.918;73.504;2023-12-22T06:15:10;4.93;;;1.02;;
59486;SDS011;45298;54.918;73.504;2023-12-22T06:17:39;1.98;;;1.10;;
59486;SDS011;45298;54.918;73.504;2023-12-22T06:20:12;1.98;;;1.25;;
59486;SDS011;45298;54.918;73.504;2023-12-22T06:22:42;3.97;;;1.48;;
59486;SDS011;45298;54.918;73.504;2023-12-22T06:25:12;1.58;;;1.00;;
59486;SDS011;45298;54.918;73.504;2023-12-22T06:27:42;1.95;;;1.00;;
59486;SDS011;45298;54.918;73.504;2023-12-22T06:30:11;3.13;;;1.65;;
59486;SDS011;45298;54.918;73.504;2023-12-22T06:32:41;1.75;;;1.02;;
59486;SDS011;45298;54.918;73.504;2023-12-22T06:35:11;1.85;;;1.10;;
59486;SDS011;45298;54.918;73.504;2023-12-22T06:37:44;2.92;;;1.02;;
59486;SDS011;45298;54.918;73.504;2023-12-22T06:40:15;3.58;;;0.88;;
59486;SDS011;45298;54.918;73.504;2023-12-22T06:42:44;2.00;;;0.95;;
59486;SDS011;45298;54.918;73.504;2023-12-22T06:45:13;6.93;;;1.00;;
59486;SDS011;45298;54.918;73.504;2023-12-22T06:47:43;2.65;;;1.02;;
59486;SDS011;45298;54.918;73.504;2023-12-22T06:50:14;1.45;;;0.75;;
59486;SDS011;45298;54.918;73.504;2023-12-22T06:52:43;2.67;;;0.73;;
59486;SDS011;45298;54.918;73.504;2023-12-22T06:55:12;1.70;;;0.85;;
59486;SDS011;45298;54.918;73.504;2023-12-22T06:57:42;6.35;;;0.88;;
59486;SDS011;45298;54.918;73.504;2023-12-22T07:00:12;2.10;;;0.88;;
59486;SDS011;45298;54.918;73.504;2023-12-22T07:02:43;2.88;;;1.02;;
59486;SDS011;45298;54.918;73.504;2023-12-22T07:07:50;1.45;;;0.80;;
59486;SDS011;45298;54.918;73.504;2023-12-22T07:10:20;3.42;;;1.33;;
59486;SDS011;45298;54.918;73.504;2023-12-22T07:12:49;0.88;;;0.68;;
59486;SDS011;45298;54.918;73.504;2023-12-22T07:15:18;2.60;;;1.10;;
59486;SDS011;45298;54.918;73.504;2023-12-22T07:17:50;1.65;;;0.75;;
59486;SDS011;45298;54.918;73.504;2023-12-22T07:20:20;0.93;;;0.60;;
59486;SDS011;45298;54.918;73.504;2023-12-22T07:22:50;1.77;;;1.00;;
59486;SDS011;45298;54.918;73.504;2023-12-22T07:25:19;4.00;;;1.00;;
59486;SDS011;45298;54.918;73.504;2023-12-22T07:27:48;4.15;;;1.17;;
59486;SDS011;45298;54.918;73.504;2023-12-22T07:30:18;1.33;;;0.88;;
59486;SDS011;45298;54.918;73.504;2023-12-22T07:32:48;3.35;;;0.80;;
59486;SDS011;45298;54.918;73.504;2023-12-22T07:35:23;2.42;;;0.90;;
59486;SDS011;45298;54.918;73.504;2023-12-22T07:37:53;3.55;;;1.02;;
59486;SDS011;45298;54.918;73.504;2023-12-22T07:40:23;3.40;;;1.10;;
59486;SDS011;45298;54.918;73.504;2023-12-22T07:42:52;2.30;;;0.75;;
59486;SDS011;45298;54.918;73.504;2023-12-22T07:45:21;2.00;;;1.00;;
59486;SDS011;45298;54.918;73.504;2023-12-22T07:47:54;1.60;;;0.95;;
59486;SDS011;45298;54.918;73.504;2023-12-22T07:50:23;2.42;;;0.98;;
59486;SDS011;45298;54.918;73.504;2023-12-22T07:52:52;4.38;;;1.20;;
59486;SDS011;45298;54.918;73.504;2023-12-22T07:55:22;4.25;;;1.58;;
59486;SDS011;45298;54.918;73.504;2023-12-22T07:57:51;3.83;;;0.90;;
59486;SDS011;45298;54.918;73.504;2023-12-22T08:00:20;1.45;;;0.50;;
59486;SDS011;45298;54.918;73.504;2023-12-22T08:02:50;1.27;;;1.00;;
59486;SDS011;45298;54.918;73.504;2023-12-22T08:05:22;1.95;;;1.38;;
59486;SDS011;45298;54.918;73.504;2023-12-22T08:07:50;2.00;;;1.40;;
59486;SDS011;45298;54.918;73.504;2023-12-22T08:10:21;3.20;;;1.40;;
59486;SDS011;45298;54.918;73.504;2023-12-22T08:12:49;0.73;;;0.60;;
59486;SDS011;45298;54.918;73.504;2023-12-22T08:15:19;1.65;;;0.85;;
59486;SDS011;45298;54.918;73.504;2023-12-22T08:18:00;1.45;;;0.98;;
59486;SDS011;45298;54.918;73.504;2023-12-22T08:20:29;0.30;;;0.30;;
59486;SDS011;45298;54.918;73.504;2023-12-22T08:23:03;1.70;;;0.88;;
59486;SDS011;45298;54.918;73.504;2023-12-22T08:25:38;1.02;;;0.50;;
59486;SDS011;45298;54.918;73.504;2023-12-22T08:28:12;2.72;;;1.20;;
59486;SDS011;45298;54.918;73.504;2023-12-22T08:30:41;2.72;;;0.47;;
59486;SDS011;45298;54.918;73.504;2023-12-22T08:33:11;2.17;;;1.00;;
59486;SDS011;45298;54.918;73.504;2023-12-22T08:35:42;2.25;;;0.95;;
59486;SDS011;45298;54.918;73.504;2023-12-22T08:38:14;2.25;;;0.95;;
59486;SDS011;45298;54.918;73.504;2023-12-22T08:40:43;2.55;;;0.95;;
59486;SDS011;45298;54.918;73.504;2023-12-22T08:43:18;1.50;;;0.82;;
59486;SDS011;45298;54.918;73.504;2023-12-22T08:45:47;0.50;;;0.38;;
59486;SDS011;45298;54.918;73.504;2023-12-22T08:48:16;1.70;;;0.82;;
59486;SDS011;45298;54.918;73.504;2023-12-22T08:50:45;1.70;;;0.75;;
59486;SDS011;45298;54.918;73.504;2023-12-22T08:53:14;0.82;;;0.63;;
59486;SDS011;45298;54.918;73.504;2023-12-22T08:55:44;1.83;;;0.88;;
59486;SDS011;45298;54.918;73.504;2023-12-22T08:58:13;2.63;;;1.38;;
59486;SDS011;45298;54.918;73.504;2023-12-22T09:00:42;2.00;;;0.88;;
59486;SDS011;45298;54.918;73.504;2023-12-22T09:03:10;2.35;;;0.88;;
59486;SDS011;45298;54.918;73.504;2023-12-22T09:05:41;4.20;;;1.75;;
59486;SDS011;45298;54.918;73.504;2023-12-22T09:08:10;3.72;;;1.02;;
59486;SDS011;45298;54.918;73.504;2023-12-22T09:10:39;1.65;;;0.90;;
59486;SDS011;45298;54.918;73.504;2023-12-22T09:13:08;1.08;;;0.80;;
59486;SDS011;45298;54.918;73.504;2023-12-22T09:15:40;2.30;;;0.85;;
59486;SDS011;45298;54.918;73.504;2023-12-22T09:18:10;2.83;;;1.00;;
59486;SDS011;45298;54.918;73.504;2023-12-22T09:20:39;1.50;;;0.77;;
59486;SDS011;45298;54.918;73.504;2023-12-22T09:23:09;4.78;;;1.42;;
59486;SDS011;45298;54.918;73.504;2023-12-22T09:25:41;1.38;;;0.90;;
59486;SDS011;45298;54.918;73.504;2023-12-22T09:28:10;1.83;;;0.82;;
59486;SDS011;45298;54.918;73.504;2023-12-22T09:30:39;0.75;;;0.60;;
59486;SDS011;45298;54.918;73.504;2023-12-22T09:33:10;1.30;;;0.93;;
59486;SDS011;45298;54.918;73.504;2023-12-22T09:35:39;0.63;;;0.40;;
59486;SDS011;45298;54.918;73.504;2023-12-22T09:38:10;1.27;;;0.88;;
59486;SDS011;45298;54.918;73.504;2023-12-22T09:40:40;3.80;;;1.63;;
59486;SDS011;45298;54.918;73.504;2023-12-22T09:43:10;3.83;;;0.95;;
59486;SDS011;45298;54.918;73.504;2023-12-22T09:45:43;1.00;;;0.90;;
59486;SDS011;45298;54.918;73.504;2023-12-22T09:48:13;5.30;;;2.05;;
59486;SDS011;45298;54.918;73.504;2023-12-22T09:50:45;3.55;;;0.82;;
59486;SDS011;45298;54.918;73.504;2023-12-22T09:53:15;13.13;;;4.60;;
59486;SDS011;45298;54.918;73.504;2023-12-22T09:55:49;4.22;;;1.95;;
59486;SDS011;45298;54.918;73.504;2023-12-22T09:58:18;1.45;;;1.05;;
59486;SDS011;45298;54.918;73.504;2023-12-22T10:00:47;0.98;;;0.90;;
59486;SDS011;45298;54.918;73.504;2023-12-22T10:03:18;2.28;;;1.15;;
59486;SDS011;45298;54.918;73.504;2023-12-22T10:05:48;0.75;;;0.40;;
59486;SDS011;45298;54.918;73.504;2023-12-22T10:08:18;0.57;;;0.50;;
59486;SDS011;45298;54.918;73.504;2023-12-22T10:10:48;0.77;;;0.35;;
59486;SDS011;45298;54.918;73.504;2023-12-22T10:13:21;1.25;;;0.80;;
59486;SDS011;45298;54.918;73.504;2023-12-22T10:15:49;2.22;;;0.90;;
59486;SDS011;45298;54.918;73.504;2023-12-22T10:18:20;0.88;;;0.70;;
59486;SDS011;45298;54.918;73.504;2023-12-22T10:20:49;2.47;;;1.27;;
59486;SDS011;45298;54.918;73.504;2023-12-22T10:23:18;1.67;;;0.82;;
59486;SDS011;45298;54.918;73.504;2023-12-22T10:25:47;1.88;;;0.90;;
59486;SDS011;45298;54.918;73.504;2023-12-22T10:28:18;2.03;;;1.08;;
59486;SDS011;45298;54.918;73.504;2023-12-22T10:30:53;2.28;;;0.75;;
59486;SDS011;45298;54.918;73.504;2023-12-22T10:33:24;0.63;;;0.57;;
59486;SDS011;45298;54.918;73.504;2023-12-22T10:35:53;2.45;;;1.23;;
59486;SDS011;45298;54.918;73.504;2023-12-22T10:38:22;2.20;;;0.98;;
59486;SDS011;45298;54.918;73.504;2023-12-22T10:40:52;1.83;;;1.20;;
59486;SDS011;45298;54.918;73.504;2023-12-22T10:43:21;3.08;;;1.52;;
59486;SDS011;45298;54.918;73.504;2023-12-22T10:45:53;5.32;;;1.83;;
59486;SDS011;45298;54.918;73.504;2023-12-22T10:48:22;4.43;;;2.30;;
59486;SDS011;45298;54.918;73.504;2023-12-22T10:50:51;1.17;;;0.70;;
59486;SDS011;45298;54.918;73.504;2023-12-22T10:53:21;4.03;;;1.92;;
59486;SDS011;45298;54.918;73.504;2023-12-22T10:55:52;14.48;;;1.55;;
59486;SDS011;45298;54.918;73.504;2023-12-22T10:58:21;2.15;;;0.95;;
59486;SDS011;45298;54.918;73.504;2023-12-22T11:00:50;1.10;;;0.80;;
59486;SDS011;45298;54.918;73.504;2023-12-22T11:03:21;0.82;;;0.70;;
59486;SDS011;45298;54.918;73.504;2023-12-22T11:05:54;1.13;;;0.65;;
59486;SDS011;45298;54.918;73.504;2023-12-22T11:08:26;1.75;;;1.00;;
59486;SDS011;45298;54.918;73.504;2023-12-22T11:10:58;1.67;;;0.82;;
59486;SDS011;45298;54.918;73.504;2023-12-22T11:13:34;1.58;;;0.70;;
59486;SDS011;45298;54.918;73.504;2023-12-22T11:16:04;1.30;;;0.73;;
59486;SDS011;45298;54.918;73.504;2023-12-22T11:18:34;4.00;;;1.10;;
59486;SDS011;45298;54.918;73.504;2023-12-22T11:21:05;1.00;;;0.57;;
59486;SDS011;45298;54.918;73.504;2023-12-22T11:23:36;1.23;;;0.70;;
59486;SDS011;45298;54.918;73.504;2023-12-22T11:26:09;1.73;;;0.82;;
59486;SDS011;45298;54.918;73.504;2023-12-22T11:28:40;1.45;;;0.82;;
59486;SDS011;45298;54.918;73.504;2023-12-22T11:31:12;4.15;;;1.13;;
59486;SDS011;45298;54.918;73.504;2023-12-22T11:33:48;0.80;;;0.52;;
59486;SDS011;45298;54.918;73.504;2023-12-22T11:36:31;1.70;;;0.63;;
59486;SDS011;45298;54.918;73.504;2023-12-22T11:39:00;0.57;;;0.52;;
59486;SDS011;45298;54.918;73.504;2023-12-22T11:41:30;0.55;;;0.50;;
59486;SDS011;45298;54.918;73.504;2023-12-22T11:44:03;1.70;;;1.08;;
59486;SDS011;45298;54.918;73.504;2023-12-22T11:46:33;1.75;;;1.05;;
59486;SDS011;45298;54.918;73.504;2023-12-22T11:49:03;6.03;;;0.98;;
59486;SDS011;45298;54.918;73.504;2023-12-22T11:51:33;1.13;;;0.73;;
59486;SDS011;45298;54.918;73.504;2023-12-22T11:54:43;1.20;;;0.77;;
59486;SDS011;45298;54.918;73.504;2023-12-22T12:00:06;3.58;;;1.30;;
59486;SDS011;45298;54.918;73.504;2023-12-22T12:02:54;1.48;;;0.85;;
59486;SDS011;45298;54.918;73.504;2023-12-22T12:05:23;1.15;;;0.85;;
59486;SDS011;45298;54.918;73.504;2023-12-22T12:07:52;1.23;;;0.60;;
59486;SDS011;45298;54.918;73.504;2023-12-22T12:13:07;2.00;;;1.00;;
59486;SDS011;45298;54.918;73.504;2023-12-22T12:15:40;1.20;;;0.52;;
59486;SDS011;45298;54.918;73.504;2023-12-22T12:18:10;0.28;;;0.28;;
59486;SDS011;45298;54.918;73.504;2023-12-22T12:20:40;0.98;;;0.68;;
59486;SDS011;45298;54.918;73.504;2023-12-22T12:23:09;1.02;;;0.63;;
59486;SDS011;45298;54.918;73.504;2023-12-22T12:25:38;0.45;;;0.43;;
59486;SDS011;45298;54.918;73.504;2023-12-22T12:28:09;0.98;;;0.50;;
59486;SDS011;45298;54.918;73.504;2023-12-22T12:30:40;1.58;;;0.60;;
59486;SDS011;45298;54.918;73.504;2023-12-22T12:33:10;0.68;;;0.35;;
59486;SDS011;45298;54.918;73.504;2023-12-22T12:35:42;0.88;;;0.63;;
59486;SDS011;45298;54.918;73.504;2023-12-22T12:38:16;0.30;;;0.30;;
59486;SDS011;45298;54.918;73.504;2023-12-22T12:40:47;1.65;;;0.75;;
59486;SDS011;45298;54.918;73.504;2023-12-22T12:43:19;0.38;;;0.38;;
59486;SDS011;45298;54.918;73.504;2023-12-22T12:45:49;0.40;;;0.40;;
59486;SDS011;45298;54.918;73.504;2023-12-22T12:48:20;0.77;;;0.68;;
59486;SDS011;45298;54.918;73.504;2023-12-22T12:50:50;0.38;;;0.38;;
59486;SDS011;45298;54.918;73.504;2023-12-22T12:53:19;0.82;;;0.65;;
59486;SDS011;45298;54.918;73.504;2023-12-22T12:55:48;2.10;;;0.88;;
59486;SDS011;45298;54.918;73.504;2023-12-22T12:58:17;1.27;;;0.55;;
59486;SDS011;45298;54.918;73.504;2023-12-22T13:00:47;0.32;;;0.30;;
59486;SDS011;45298;54.918;73.504;2023-12-22T13:03:16;0.70;;;0.63;;
59486;SDS011;45298;54.918;73.504;2023-12-22T13:05:46;1.20;;;0.77;;
59486;SDS011;45298;54.918;73.504;2023-12-22T13:08:15;0.40;;;0.40;;
59486;SDS011;45298;54.918;73.504;2023-12-22T13:10:44;1.08;;;0.52;;
59486;SDS011;45298;54.918;73.504;2023-12-22T13:13:13;1.77;;;1.17;;
59486;SDS011;45298;54.918;73.504;2023-12-22T13:15:42;0.50;;;0.47;;
59486;SDS011;45298;54.918;73.504;2023-12-22T13:18:11;1.65;;;0.73;;
59486;SDS011;45298;54.918;73.504;2023-12-22T13:20:41;1.55;;;0.65;;
59486;SDS011;45298;54.918;73.504;2023-12-22T13:23:10;0.68;;;0.60;;
59486;SDS011;45298;54.918;73.504;2023-12-22T13:25:39;3.08;;;0.70;;
59486;SDS011;45298;54.918;73.504;2023-12-22T13:28:09;0.35;;;0.32;;
59486;SDS011;45298;54.918;73.504;2023-12-22T13:30:38;3.50;;;0.65;;
59486;SDS011;45298;54.918;73.504;2023-12-22T13:33:12;0.40;;;0.40;;
59486;SDS011;45298;54.918;73.504;2023-12-22T13:35:41;1.73;;;0.95;;
59486;SDS011;45298;54.918;73.504;2023-12-22T13:38:10;0.73;;;0.45;;
59486;SDS011;45298;54.918;73.504;2023-12-22T13:40:44;0.50;;;0.50;;
59486;SDS011;45298;54.918;73.504;2023-12-22T13:43:16;0.22;;;0.22;;
59486;SDS011;45298;54.918;73.504;2023-12-22T13:45:46;1.83;;;0.75;;
59486;SDS011;45298;54.918;73.504;2023-12-22T13:48:19;2.00;;;1.23;;
59486;SDS011;45298;54.918;73.504;2023-12-22T13:50:58;1.52;;;1.02;;
59486;SDS011;45298;54.918;73.504;2023-12-22T13:53:28;0.85;;;0.75;;
59486;SDS011;45298;54.918;73.504;2023-12-22T13:55:58;0.68;;;0.57;;
59486;SDS011;45298;54.918;73.504;2023-12-22T13:58:28;1.35;;;0.80;;
59486;SDS011;45298;54.918;73.504;2023-12-22T14:00:57;2.08;;;1.23;;
59486;SDS011;45298;54.918;73.504;2023-12-22T14:03:26;1.38;;;0.73;;
59486;SDS011;45298;54.918;73.504;2023-12-22T14:05:55;1.92;;;1.08;;
59486;SDS011;45298;54.918;73.504;2023-12-22T14:08:24;0.55;;;0.47;;
59486;SDS011;45298;54.918;73.504;2023-12-22T14:10:53;1.88;;;0.73;;
59486;SDS011;45298;54.918;73.504;2023-12-22T14:13:23;0.70;;;0.50;;
59486;SDS011;45298;54.918;73.504;2023-12-22T14:15:52;0.70;;;0.65;;
59486;SDS011;45298;54.918;73.504;2023-12-22T14:18:21;1.27;;;0.82;;
59486;SDS011;45298;54.918;73.504;2023-12-22T14:20:51;1.05;;;0.63;;
59486;SDS011;45298;54.918;73.504;2023-12-22T14:23:20;2.70;;;1.30;;
59486;SDS011;45298;54.918;73.504;2023-12-22T14:26:01;1.90;;;1.45;;
59486;SDS011;45298;54.918;73.504;2023-12-22T14:28:31;1.55;;;1.08;;
59486;SDS011;45298;54.918;73.504;2023-12-22T14:31:00;3.40;;;0.68;;
59486;SDS011;45298;54.918;73.504;2023-12-22T14:33:30;0.88;;;0.68;;
59486;SDS011;45298;54.918;73.504;2023-12-22T14:35:59;1.52;;;0.90;;
59486;SDS011;45298;54.918;73.504;2023-12-22T14:38:28;0.88;;;0.45;;
59486;SDS011;45298;54.918;73.504;2023-12-22T14:40:57;0.65;;;0.60;;
59486;SDS011;45298;54.918;73.504;2023-12-22T14:43:26;0.22;;;0.22;;
59486;SDS011;45298;54.918;73.504;2023-12-22T14:45:55;0.73;;;0.45;;
59486;SDS011;45298;54.918;73.504;2023-12-22T14:48:24;2.47;;;1.30;;
59486;SDS011;45298;54.918;73.504;2023-12-22T14:50:53;0.28;;;0.28;;
59486;SDS011;45298;54.918;73.504;2023-12-22T14:53:22;1.52;;;0.85;;
59486;SDS011;45298;54.918;73.504;2023-12-22T14:55:51;0.60;;;0.57;;
59486;SDS011;45298;54.918;73.504;2023-12-22T14:58:25;0.40;;;0.40;;
59486;SDS011;45298;54.918;73.504;2023-12-22T15:00:54;0.50;;;0.40;;